sensor_id;sensor_type;location;lat;lon;timestamp;pressure;altitude;pressure_sealevel;temperature;humidity
37710;BME280;60223;34.854;-92.408;2022-12-19T00:01:57;101561.55;;;21.29;22.43
37710;BME280;60223;34.854;-92.408;2022-12-19T00:04:21;101558.24;;;21.50;22.46
37710;BME280;60223;34.854;-92.408;2022-12-19T00:06:48;101557.67;;;20.93;22.53
37710;BME280;60223;34.854;-92.408;2022-12-19T00:09:13;101561.07;;;20.93;22.51
37710;BME280;60223;34.854;-92.408;2022-12-19T00:11:40;101564.31;;;21.28;22.55
37710;BME280;60223;34.854;-92.408;2022-12-19T00:14:06;101567.47;;;21.39;22.44
37710;BME280;60223;34.854;-92.408;2022-12-19T00:16:32;101565.94;;;21.22;22.69
37710;BME280;60223;34.854;-92.408;2022-12-19T00:18:58;101566.65;;;22.35;21.75
37710;BME280;60223;34.854;-92.408;2022-12-19T00:21:24;101562.84;;;21.96;22.02
37710;BME280;60223;34.854;-92.408;2022-12-19T00:23:48;101571.01;;;22.08;21.99
37710;BME280;60223;34.854;-92.408;2022-12-19T00:26:15;101578.45;;;22.62;21.62
37710;BME280;60223;34.854;-92.408;2022-12-19T00:28:40;101587.57;;;21.70;21.93
37710;BME280;60223;34.854;-92.408;2022-12-19T00:31:03;101592.01;;;22.13;21.79
37710;BME280;60223;34.854;-92.408;2022-12-19T00:33:32;101599.92;;;21.75;21.95
37710;BME280;60223;34.854;-92.408;2022-12-19T00:36:00;101600.43;;;21.74;21.93
37710;BME280;60223;34.854;-92.408;2022-12-19T00:38:23;101596.00;;;21.77;21.91
37710;BME280;60223;34.854;-92.408;2022-12-19T00:40:48;101591.27;;;22.18;21.98
37710;BME280;60223;34.854;-92.408;2022-12-19T00:43:14;101594.92;;;21.64;22.04
37710;BME280;60223;34.854;-92.408;2022-12-19T00:45:40;101600.21;;;21.80;22.13
37710;BME280;60223;34.854;-92.408;2022-12-19T00:48:06;101604.07;;;21.78;22.17
37710;BME280;60223;34.854;-92.408;2022-12-19T00:50:31;101603.07;;;21.92;22.26
37710;BME280;60223;34.854;-92.408;2022-12-19T00:52:54;101602.09;;;21.82;22.33
37710;BME280;60223;34.854;-92.408;2022-12-19T00:55:23;101604.55;;;21.55;22.38
37710;BME280;60223;34.854;-92.408;2022-12-19T00:57:48;101606.40;;;21.53;22.39
37710;BME280;60223;34.854;-92.408;2022-12-19T01:00:15;101610.83;;;21.43;22.46
37710;BME280;60223;34.854;-92.408;2022-12-19T01:02:40;101610.83;;;21.54;22.55
37710;BME280;60223;34.854;-92.408;2022-12-19T01:05:04;101608.26;;;21.21;22.63
37710;BME280;60223;34.854;-92.408;2022-12-19T01:07:31;101611.96;;;20.93;22.66
37710;BME280;60223;34.854;-92.408;2022-12-19T01:09:57;101616.78;;;21.24;22.59
37710;BME280;60223;34.854;-92.408;2022-12-19T01:12:23;101618.41;;;21.14;22.65
37710;BME280;60223;34.854;-92.408;2022-12-19T01:14:51;101623.68;;;20.86;22.60
37710;BME280;60223;34.854;-92.408;2022-12-19T01:17:14;101626.41;;;20.76;22.72
37710;BME280;60223;34.854;-92.408;2022-12-19T01:19:40;101619.75;;;20.85;22.78
37710;BME280;60223;34.854;-92.408;2022-12-19T01:22:06;101626.54;;;20.39;23.27
37710;BME280;60223;34.854;-92.408;2022-12-19T01:24:29;101631.67;;;21.87;22.22
37710;BME280;60223;34.854;-92.408;2022-12-19T01:26:57;101640.02;;;22.19;21.98
37710;BME280;60223;34.854;-92.408;2022-12-19T01:29:23;101641.24;;;21.65;22.16
37710;BME280;60223;34.854;-92.408;2022-12-19T01:31:49;101645.71;;;22.63;21.67
37710;BME280;60223;34.854;-92.408;2022-12-19T01:34:14;101650.52;;;21.86;22.11
37710;BME280;60223;34.854;-92.408;2022-12-19T01:36:41;101649.02;;;22.29;21.94
37710;BME280;60223;34.854;-92.408;2022-12-19T01:39:06;101645.75;;;21.92;22.05
37710;BME280;60223;34.854;-92.408;2022-12-19T01:41:32;101656.08;;;21.64;22.08
37710;BME280;60223;34.854;-92.408;2022-12-19T01:43:59;101661.88;;;21.82;22.08
37710;BME280;60223;34.854;-92.408;2022-12-19T01:46:25;101663.38;;;21.76;22.17
37710;BME280;60223;34.854;-92.408;2022-12-19T01:48:49;101662.67;;;21.79;22.14
37710;BME280;60223;34.854;-92.408;2022-12-19T01:51:17;101663.19;;;21.77;22.19
37710;BME280;60223;34.854;-92.408;2022-12-19T01:53:45;101666.75;;;21.39;22.32
37710;BME280;60223;34.854;-92.408;2022-12-19T01:56:09;101667.19;;;21.83;22.35
37710;BME280;60223;34.854;-92.408;2022-12-19T01:58:32;101668.69;;;21.80;22.38
37710;BME280;60223;34.854;-92.408;2022-12-19T02:00:58;101668.66;;;21.54;22.45
37710;BME280;60223;34.854;-92.408;2022-12-19T02:03:27;101664.40;;;21.44;22.49
37710;BME280;60223;34.854;-92.408;2022-12-19T02:05:50;101664.28;;;21.32;22.57
37710;BME280;60223;34.854;-92.408;2022-12-19T02:08:13;101658.24;;;21.35;22.55
37710;BME280;60223;34.854;-92.408;2022-12-19T02:10:41;101652.01;;;21.01;22.57
37710;BME280;60223;34.854;-92.408;2022-12-19T02:13:05;101652.54;;;21.41;22.69
37710;BME280;60223;34.854;-92.408;2022-12-19T02:15:38;101654.91;;;21.08;22.68
37710;BME280;60223;34.854;-92.408;2022-12-19T02:18:06;101653.41;;;20.73;22.69
37710;BME280;60223;34.854;-92.408;2022-12-19T02:23:02;101667.05;;;20.41;23.26
37710;BME280;60223;34.854;-92.408;2022-12-19T02:25:31;101668.12;;;21.25;22.43
37710;BME280;60223;34.854;-92.408;2022-12-19T02:28:04;101670.76;;;21.58;21.94
37710;BME280;60223;34.854;-92.408;2022-12-19T02:30:10;101671.45;;;21.99;22.03
37710;BME280;60223;34.854;-92.408;2022-12-19T02:32:38;101674.70;;;21.89;22.20
37710;BME280;60223;34.854;-92.408;2022-12-19T02:35:03;101667.71;;;22.39;21.75
37710;BME280;60223;34.854;-92.408;2022-12-19T02:37:27;101656.29;;;22.04;22.10
37710;BME280;60223;34.854;-92.408;2022-12-19T02:39:54;101656.12;;;21.88;22.02
37710;BME280;60223;34.854;-92.408;2022-12-19T02:42:18;101655.46;;;21.68;22.23
37710;BME280;60223;34.854;-92.408;2022-12-19T02:44:44;101656.00;;;21.83;22.09
37710;BME280;60223;34.854;-92.408;2022-12-19T02:47:07;101657.12;;;21.62;22.28
37710;BME280;60223;34.854;-92.408;2022-12-19T02:49:32;101661.12;;;21.88;22.28
37710;BME280;60223;34.854;-92.408;2022-12-19T02:54:25;101668.77;;;21.80;22.33
37710;BME280;60223;34.854;-92.408;2022-12-19T02:56:53;101665.83;;;21.78;22.41
37710;BME280;60223;34.854;-92.408;2022-12-19T02:59:27;101663.94;;;21.70;22.46
37710;BME280;60223;34.854;-92.408;2022-12-19T03:01:46;101669.79;;;21.63;22.46
37710;BME280;60223;34.854;-92.408;2022-12-19T03:04:14;101667.60;;;21.59;22.52
37710;BME280;60223;34.854;-92.408;2022-12-19T03:06:36;101665.02;;;21.57;22.51
37710;BME280;60223;34.854;-92.408;2022-12-19T03:09:05;101669.03;;;21.48;22.56
37710;BME280;60223;34.854;-92.408;2022-12-19T03:11:26;101668.87;;;21.29;22.62
37710;BME280;60223;34.854;-92.408;2022-12-19T03:13:56;101674.22;;;21.24;22.67
37710;BME280;60223;34.854;-92.408;2022-12-19T03:16:15;101676.74;;;20.87;22.69
37710;BME280;60223;34.854;-92.408;2022-12-19T03:18:42;101679.55;;;21.00;22.72
37710;BME280;60223;34.854;-92.408;2022-12-19T03:21:12;101680.20;;;20.54;23.21
37710;BME280;60223;34.854;-92.408;2022-12-19T03:23:31;101679.80;;;22.07;21.99
37710;BME280;60223;34.854;-92.408;2022-12-19T03:26:04;101685.77;;;21.90;22.05
37710;BME280;60223;34.854;-92.408;2022-12-19T03:28:38;101685.90;;;21.71;22.21
37710;BME280;60223;34.854;-92.408;2022-12-19T03:30:50;101687.69;;;22.09;21.96
37710;BME280;60223;34.854;-92.408;2022-12-19T03:33:19;101696.50;;;21.50;22.07
37710;BME280;60223;34.854;-92.408;2022-12-19T03:35:41;101694.97;;;21.97;22.08
37710;BME280;60223;34.854;-92.408;2022-12-19T03:38:08;101696.52;;;22.12;22.11
37710;BME280;60223;34.854;-92.408;2022-12-19T03:40:35;101698.36;;;21.82;22.23
37710;BME280;60223;34.854;-92.408;2022-12-19T03:43:03;101695.79;;;21.42;22.19
37710;BME280;60223;34.854;-92.408;2022-12-19T03:45:30;101679.63;;;21.80;22.08
37710;BME280;60223;34.854;-92.408;2022-12-19T03:47:54;101676.05;;;21.66;22.22
37710;BME280;60223;34.854;-92.408;2022-12-19T03:50:17;101672.24;;;21.35;22.04
37710;BME280;60223;34.854;-92.408;2022-12-19T03:52:44;101673.30;;;21.53;22.16
37710;BME280;60223;34.854;-92.408;2022-12-19T03:55:15;101672.71;;;21.74;22.24
37710;BME280;60223;34.854;-92.408;2022-12-19T03:57:34;101680.71;;;21.18;22.29
37710;BME280;60223;34.854;-92.408;2022-12-19T04:00:03;101690.84;;;21.83;22.01
37710;BME280;60223;34.854;-92.408;2022-12-19T04:02:26;101689.01;;;22.38;21.55
37710;BME280;60223;34.854;-92.408;2022-12-19T04:04:53;101681.66;;;22.23;21.71
37710;BME280;60223;34.854;-92.408;2022-12-19T04:07:18;101681.01;;;22.02;21.74
37710;BME280;60223;34.854;-92.408;2022-12-19T04:09:42;101681.65;;;22.01;21.80
37710;BME280;60223;34.854;-92.408;2022-12-19T04:12:15;101683.96;;;22.26;21.66
37710;BME280;60223;34.854;-92.408;2022-12-19T04:14:33;101674.18;;;22.54;21.77
37710;BME280;60223;34.854;-92.408;2022-12-19T04:17:04;101662.12;;;22.82;21.52
37710;BME280;60223;34.854;-92.408;2022-12-19T04:19:28;101658.69;;;22.85;21.41
37710;BME280;60223;34.854;-92.408;2022-12-19T04:21:57;101661.37;;;23.05;21.38
37710;BME280;60223;34.854;-92.408;2022-12-19T04:24:21;101661.35;;;23.02;21.53
37710;BME280;60223;34.854;-92.408;2022-12-19T04:26:44;101663.23;;;23.39;21.39
37710;BME280;60223;34.854;-92.408;2022-12-19T04:29:09;101671.00;;;23.66;21.28
37710;BME280;60223;34.854;-92.408;2022-12-19T04:31:33;101680.56;;;23.82;21.36
37710;BME280;60223;34.854;-92.408;2022-12-19T04:33:59;101686.60;;;23.75;21.41
37710;BME280;60223;34.854;-92.408;2022-12-19T04:36:25;101686.69;;;24.12;21.36
37710;BME280;60223;34.854;-92.408;2022-12-19T04:38:51;101691.26;;;23.69;21.78
37710;BME280;60223;34.854;-92.408;2022-12-19T04:41:13;101695.09;;;23.47;22.33
37710;BME280;60223;34.854;-92.408;2022-12-19T04:43:42;101696.38;;;23.50;22.60
37710;BME280;60223;34.854;-92.408;2022-12-19T04:46:07;101704.88;;;23.11;22.63
37710;BME280;60223;34.854;-92.408;2022-12-19T04:48:34;101707.27;;;23.37;22.64
37710;BME280;60223;34.854;-92.408;2022-12-19T04:50:59;101704.75;;;22.72;22.74
37710;BME280;60223;34.854;-92.408;2022-12-19T04:53:25;101706.69;;;23.24;22.79
37710;BME280;60223;34.854;-92.408;2022-12-19T04:58:13;101701.82;;;23.38;22.63
37710;BME280;60223;34.854;-92.408;2022-12-19T05:00:42;101695.96;;;23.29;22.71
37710;BME280;60223;34.854;-92.408;2022-12-19T05:03:08;101685.58;;;23.50;22.40
37710;BME280;60223;34.854;-92.408;2022-12-19T05:05:34;101683.31;;;23.77;22.27
37710;BME280;60223;34.854;-92.408;2022-12-19T05:07:59;101691.03;;;23.24;22.92
37710;BME280;60223;34.854;-92.408;2022-12-19T05:10:25;101689.71;;;23.33;22.85
37710;BME280;60223;34.854;-92.408;2022-12-19T05:12:52;101690.41;;;23.17;22.85
37710;BME280;60223;34.854;-92.408;2022-12-19T05:15:16;101690.70;;;22.89;23.02
37710;BME280;60223;34.854;-92.408;2022-12-19T05:17:40;101681.57;;;23.16;23.14
37710;BME280;60223;34.854;-92.408;2022-12-19T05:20:09;101678.02;;;22.92;23.09
37710;BME280;60223;34.854;-92.408;2022-12-19T05:22:32;101675.86;;;23.00;23.17
37710;BME280;60223;34.854;-92.408;2022-12-19T05:24:59;101674.07;;;22.74;23.16
37710;BME280;60223;34.854;-92.408;2022-12-19T05:27:25;101676.97;;;22.84;23.24
37710;BME280;60223;34.854;-92.408;2022-12-19T05:29:47;101672.36;;;22.49;23.32
37710;BME280;60223;34.854;-92.408;2022-12-19T05:32:16;101663.31;;;22.45;23.33
37710;BME280;60223;34.854;-92.408;2022-12-19T05:34:41;101667.77;;;22.63;23.37
37710;BME280;60223;34.854;-92.408;2022-12-19T05:37:04;101674.67;;;22.54;23.40
37710;BME280;60223;34.854;-92.408;2022-12-19T05:39:33;101676.64;;;22.89;23.13
37710;BME280;60223;34.854;-92.408;2022-12-19T05:41:59;101668.96;;;22.74;23.17
37710;BME280;60223;34.854;-92.408;2022-12-19T05:44:24;101665.89;;;22.75;23.15
37710;BME280;60223;34.854;-92.408;2022-12-19T05:46:50;101672.53;;;22.64;23.17
37710;BME280;60223;34.854;-92.408;2022-12-19T05:49:15;101683.17;;;22.15;23.50
37710;BME280;60223;34.854;-92.408;2022-12-19T05:51:41;101685.91;;;21.47;23.81
37710;BME280;60223;34.854;-92.408;2022-12-19T05:54:07;101693.52;;;21.69;23.82
37710;BME280;60223;34.854;-92.408;2022-12-19T05:56:33;101688.40;;;21.34;24.04
37710;BME280;60223;34.854;-92.408;2022-12-19T05:58:58;101690.51;;;21.17;23.96
37710;BME280;60223;34.854;-92.408;2022-12-19T06:01:26;101698.27;;;21.32;23.97
37710;BME280;60223;34.854;-92.408;2022-12-19T06:03:48;101721.33;;;20.99;24.21
37710;BME280;60223;34.854;-92.408;2022-12-19T06:06:17;101738.57;;;21.41;23.99
37710;BME280;60223;34.854;-92.408;2022-12-19T06:08:41;101739.22;;;20.94;24.17
37710;BME280;60223;34.854;-92.408;2022-12-19T06:11:09;101733.44;;;20.90;24.13
37710;BME280;60223;34.854;-92.408;2022-12-19T06:13:34;101720.30;;;20.92;24.06
37710;BME280;60223;34.854;-92.408;2022-12-19T06:16:01;101716.72;;;21.08;24.09
37710;BME280;60223;34.854;-92.408;2022-12-19T06:18:24;101704.97;;;21.18;24.14
37710;BME280;60223;34.854;-92.408;2022-12-19T06:20:55;101698.20;;;21.34;23.98
37710;BME280;60223;34.854;-92.408;2022-12-19T06:23:14;101690.47;;;20.85;24.12
37710;BME280;60223;34.854;-92.408;2022-12-19T06:25:42;101686.22;;;20.79;24.12
37710;BME280;60223;34.854;-92.408;2022-12-19T06:28:07;101684.25;;;21.05;24.05
37710;BME280;60223;34.854;-92.408;2022-12-19T06:30:33;101707.23;;;20.99;24.04
37710;BME280;60223;34.854;-92.408;2022-12-19T06:32:59;101732.84;;;21.14;24.09
37710;BME280;60223;34.854;-92.408;2022-12-19T06:35:25;101731.46;;;20.49;24.36
37710;BME280;60223;34.854;-92.408;2022-12-19T06:37:51;101723.03;;;20.90;23.98
37710;BME280;60223;34.854;-92.408;2022-12-19T06:40:17;101722.87;;;20.49;24.29
37710;BME280;60223;34.854;-92.408;2022-12-19T06:42:42;101714.26;;;20.87;23.97
37710;BME280;60223;34.854;-92.408;2022-12-19T06:45:09;101700.36;;;20.92;23.84
37710;BME280;60223;34.854;-92.408;2022-12-19T06:47:34;101706.60;;;20.58;24.11
37710;BME280;60223;34.854;-92.408;2022-12-19T06:49:57;101718.00;;;20.25;24.34
37710;BME280;60223;34.854;-92.408;2022-12-19T06:52:25;101724.25;;;20.38;24.20
37710;BME280;60223;34.854;-92.408;2022-12-19T06:54:51;101731.01;;;20.62;23.99
37710;BME280;60223;34.854;-92.408;2022-12-19T06:57:17;101733.95;;;20.31;24.21
37710;BME280;60223;34.854;-92.408;2022-12-19T06:59:42;101744.19;;;20.72;24.04
37710;BME280;60223;34.854;-92.408;2022-12-19T07:02:17;101746.65;;;20.42;24.26
37710;BME280;60223;34.854;-92.408;2022-12-19T07:04:36;101753.06;;;20.43;24.21
37710;BME280;60223;34.854;-92.408;2022-12-19T07:07:00;101745.05;;;20.32;24.29
37710;BME280;60223;34.854;-92.408;2022-12-19T07:09:26;101732.94;;;20.22;24.31
37710;BME280;60223;34.854;-92.408;2022-12-19T07:11:51;101745.07;;;20.31;24.22
37710;BME280;60223;34.854;-92.408;2022-12-19T07:14:17;101758.49;;;18.95;25.70
37710;BME280;60223;34.854;-92.408;2022-12-19T07:16:43;101760.55;;;21.51;23.42
37710;BME280;60223;34.854;-92.408;2022-12-19T07:19:09;101770.02;;;21.44;23.28
37710;BME280;60223;34.854;-92.408;2022-12-19T07:21:32;101755.23;;;21.76;23.25
37710;BME280;60223;34.854;-92.408;2022-12-19T07:24:01;101747.68;;;21.50;23.12
37710;BME280;60223;34.854;-92.408;2022-12-19T07:26:25;101753.87;;;21.81;22.85
37710;BME280;60223;34.854;-92.408;2022-12-19T07:28:52;101753.50;;;22.37;22.61
37710;BME280;60223;34.854;-92.408;2022-12-19T07:31:18;101746.07;;;21.97;22.56
37710;BME280;60223;34.854;-92.408;2022-12-19T07:33:44;101739.61;;;22.28;22.50
37710;BME280;60223;34.854;-92.408;2022-12-19T07:36:09;101749.10;;;22.30;22.47
37710;BME280;60223;34.854;-92.408;2022-12-19T07:38:35;101749.89;;;22.10;22.61
37710;BME280;60223;34.854;-92.408;2022-12-19T07:41:00;101749.69;;;22.25;22.47
37710;BME280;60223;34.854;-92.408;2022-12-19T07:43:25;101739.47;;;21.81;22.62
37710;BME280;60223;34.854;-92.408;2022-12-19T07:45:57;101760.24;;;21.91;22.72
37710;BME280;60223;34.854;-92.408;2022-12-19T07:48:18;101774.77;;;21.79;22.79
37710;BME280;60223;34.854;-92.408;2022-12-19T07:50:44;101773.86;;;21.59;22.92
37710;BME280;60223;34.854;-92.408;2022-12-19T07:53:09;101775.59;;;21.58;22.91
37710;BME280;60223;34.854;-92.408;2022-12-19T07:55:32;101794.57;;;21.32;22.91
37710;BME280;60223;34.854;-92.408;2022-12-19T07:58:01;101801.06;;;21.26;23.10
37710;BME280;60223;34.854;-92.408;2022-12-19T08:00:27;101792.73;;;21.36;23.19
37710;BME280;60223;34.854;-92.408;2022-12-19T08:02:52;101793.15;;;21.29;23.04
37710;BME280;60223;34.854;-92.408;2022-12-19T08:05:18;101807.37;;;20.77;23.44
37710;BME280;60223;34.854;-92.408;2022-12-19T08:07:44;101807.42;;;20.32;23.58
37710;BME280;60223;34.854;-92.408;2022-12-19T08:10:09;101793.44;;;20.54;23.85
37710;BME280;60223;34.854;-92.408;2022-12-19T08:12:36;101786.57;;;21.86;22.67
37710;BME280;60223;34.854;-92.408;2022-12-19T08:15:01;101797.41;;;21.93;22.72
37710;BME280;60223;34.854;-92.408;2022-12-19T08:17:27;101813.55;;;21.55;22.86
37710;BME280;60223;34.854;-92.408;2022-12-19T08:19:52;101815.73;;;21.93;22.78
37710;BME280;60223;34.854;-92.408;2022-12-19T08:22:18;101822.78;;;21.92;22.57
37710;BME280;60223;34.854;-92.408;2022-12-19T08:24:43;101821.99;;;22.11;22.43
37710;BME280;60223;34.854;-92.408;2022-12-19T08:27:09;101812.07;;;22.29;22.30
37710;BME280;60223;34.854;-92.408;2022-12-19T08:29:36;101786.79;;;22.31;22.27
37710;BME280;60223;34.854;-92.408;2022-12-19T08:32:01;101760.10;;;22.20;22.34
37710;BME280;60223;34.854;-92.408;2022-12-19T08:34:27;101748.53;;;22.20;22.30
37710;BME280;60223;34.854;-92.408;2022-12-19T08:36:53;101745.99;;;22.20;22.30
37710;BME280;60223;34.854;-92.408;2022-12-19T08:39:19;101727.37;;;21.78;22.43
37710;BME280;60223;34.854;-92.408;2022-12-19T08:41:45;101718.35;;;21.99;22.42
37710;BME280;60223;34.854;-92.408;2022-12-19T08:44:13;101739.05;;;21.66;22.46
37710;BME280;60223;34.854;-92.408;2022-12-19T08:46:36;101757.60;;;21.78;22.54
37710;BME280;60223;34.854;-92.408;2022-12-19T08:49:01;101739.67;;;21.79;22.50
37710;BME280;60223;34.854;-92.408;2022-12-19T08:51:28;101733.30;;;21.59;22.66
37710;BME280;60223;34.854;-92.408;2022-12-19T08:53:53;101732.87;;;21.37;22.79
37710;BME280;60223;34.854;-92.408;2022-12-19T08:56:19;101745.18;;;21.16;22.94
37710;BME280;60223;34.854;-92.408;2022-12-19T08:58:45;101740.03;;;21.12;22.95
37710;BME280;60223;34.854;-92.408;2022-12-19T09:01:13;101726.66;;;19.43;24.37
37710;BME280;60223;34.854;-92.408;2022-12-19T09:03:37;101706.33;;;21.84;22.73
37710;BME280;60223;34.854;-92.408;2022-12-19T09:06:03;101692.21;;;21.69;22.69
37710;BME280;60223;34.854;-92.408;2022-12-19T09:08:28;101677.04;;;21.79;22.68
37710;BME280;60223;34.854;-92.408;2022-12-19T09:10:56;101677.92;;;21.71;22.56
37710;BME280;60223;34.854;-92.408;2022-12-19T09:13:18;101672.95;;;21.48;22.57
37710;BME280;60223;34.854;-92.408;2022-12-19T09:15:45;101660.92;;;21.98;22.35
37710;BME280;60223;34.854;-92.408;2022-12-19T09:18:11;101640.99;;;21.81;22.31
37710;BME280;60223;34.854;-92.408;2022-12-19T09:20:33;101632.26;;;22.22;22.17
37710;BME280;60223;34.854;-92.408;2022-12-19T09:23:02;101624.96;;;22.24;22.13
37710;BME280;60223;34.854;-92.408;2022-12-19T09:25:27;101631.79;;;21.79;22.10
37710;BME280;60223;34.854;-92.408;2022-12-19T09:27:54;101654.21;;;22.20;22.11
37710;BME280;60223;34.854;-92.408;2022-12-19T09:30:20;101674.07;;;21.63;22.19
37710;BME280;60223;34.854;-92.408;2022-12-19T09:32:45;101685.18;;;22.29;22.20
37710;BME280;60223;34.854;-92.408;2022-12-19T09:35:11;101695.84;;;21.74;22.26
37710;BME280;60223;34.854;-92.408;2022-12-19T09:37:37;101694.27;;;21.91;22.31
37710;BME280;60223;34.854;-92.408;2022-12-19T09:39:59;101685.69;;;21.62;22.48
37710;BME280;60223;34.854;-92.408;2022-12-19T09:42:43;101673.14;;;21.48;22.56
37710;BME280;60223;34.854;-92.408;2022-12-19T09:45:08;101664.17;;;21.42;22.57
37710;BME280;60223;34.854;-92.408;2022-12-19T09:47:22;101649.26;;;21.45;22.72
37710;BME280;60223;34.854;-92.408;2022-12-19T09:49:45;101643.04;;;21.19;22.90
37710;BME280;60223;34.854;-92.408;2022-12-19T09:52:15;101648.08;;;20.44;23.75
37710;BME280;60223;34.854;-92.408;2022-12-19T09:54:40;101645.02;;;21.79;22.42
37710;BME280;60223;34.854;-92.408;2022-12-19T09:57:09;101645.51;;;21.75;22.54
37710;BME280;60223;34.854;-92.408;2022-12-19T09:59:33;101658.38;;;21.36;22.70
37710;BME280;60223;34.854;-92.408;2022-12-19T10:01:58;101674.94;;;21.71;22.43
37710;BME280;60223;34.854;-92.408;2022-12-19T10:04:21;101686.55;;;21.88;22.31
37710;BME280;60223;34.854;-92.408;2022-12-19T10:06:46;101705.98;;;21.86;22.30
37710;BME280;60223;34.854;-92.408;2022-12-19T10:09:15;101711.57;;;21.84;22.13
37710;BME280;60223;34.854;-92.408;2022-12-19T10:11:49;101706.96;;;22.17;22.07
37710;BME280;60223;34.854;-92.408;2022-12-19T10:14:16;101712.85;;;22.22;22.03
37710;BME280;60223;34.854;-92.408;2022-12-19T10:16:35;101719.13;;;22.20;22.03
37710;BME280;60223;34.854;-92.408;2022-12-19T10:18:56;101728.41;;;21.90;22.02
37710;BME280;60223;34.854;-92.408;2022-12-19T10:21:30;101734.75;;;22.07;22.06
37710;BME280;60223;34.854;-92.408;2022-12-19T10:23:53;101738.05;;;21.74;22.12
37710;BME280;60223;34.854;-92.408;2022-12-19T10:26:16;101727.65;;;21.69;22.13
37710;BME280;60223;34.854;-92.408;2022-12-19T10:28:50;101741.77;;;21.74;22.26
37710;BME280;60223;34.854;-92.408;2022-12-19T10:31:10;101759.72;;;21.67;22.30
37710;BME280;60223;34.854;-92.408;2022-12-19T10:33:33;101770.60;;;21.43;22.47
37710;BME280;60223;34.854;-92.408;2022-12-19T10:35:57;101755.51;;;21.33;22.47
37710;BME280;60223;34.854;-92.408;2022-12-19T10:38:27;101749.78;;;21.39;22.62
37710;BME280;60223;34.854;-92.408;2022-12-19T10:40:47;101745.18;;;19.18;24.27
37710;BME280;60223;34.854;-92.408;2022-12-19T10:43:17;101761.48;;;21.53;22.33
37710;BME280;60223;34.854;-92.408;2022-12-19T10:45:43;101782.47;;;21.69;22.23
37710;BME280;60223;34.854;-92.408;2022-12-19T10:48:03;101788.90;;;21.76;22.41
37710;BME280;60223;34.854;-92.408;2022-12-19T10:50:31;101783.88;;;21.54;22.44
37710;BME280;60223;34.854;-92.408;2022-12-19T10:55:33;101776.48;;;21.96;22.12
37710;BME280;60223;34.854;-92.408;2022-12-19T10:57:46;101789.06;;;21.97;22.12
37710;BME280;60223;34.854;-92.408;2022-12-19T11:00:16;101788.41;;;21.87;22.00
37710;BME280;60223;34.854;-92.408;2022-12-19T11:02:44;101786.02;;;22.18;21.93
37710;BME280;60223;34.854;-92.408;2022-12-19T11:05:05;101780.17;;;22.21;21.88
37710;BME280;60223;34.854;-92.408;2022-12-19T11:07:29;101770.30;;;21.96;21.89
37710;BME280;60223;34.854;-92.408;2022-12-19T11:09:56;101773.34;;;22.11;21.92
37710;BME280;60223;34.854;-92.408;2022-12-19T11:12:23;101775.11;;;21.92;21.87
37710;BME280;60223;34.854;-92.408;2022-12-19T11:14:53;101778.86;;;21.88;22.09
37710;BME280;60223;34.854;-92.408;2022-12-19T11:17:24;101779.14;;;21.96;22.17
37710;BME280;60223;34.854;-92.408;2022-12-19T11:19:39;101771.59;;;21.81;22.08
37710;BME280;60223;34.854;-92.408;2022-12-19T11:22:06;101761.46;;;21.56;22.25
37710;BME280;60223;34.854;-92.408;2022-12-19T11:24:33;101748.30;;;21.17;22.52
37710;BME280;60223;34.854;-92.408;2022-12-19T11:26:56;101748.62;;;21.06;22.59
37710;BME280;60223;34.854;-92.408;2022-12-19T11:29:22;101751.60;;;19.54;23.81
37710;BME280;60223;34.854;-92.408;2022-12-19T11:31:49;101756.21;;;21.32;22.59
37710;BME280;60223;34.854;-92.408;2022-12-19T11:34:18;101751.04;;;21.49;22.26
37710;BME280;60223;34.854;-92.408;2022-12-19T11:36:42;101736.74;;;21.43;22.40
37710;BME280;60223;34.854;-92.408;2022-12-19T11:39:05;101740.97;;;21.73;22.18
37710;BME280;60223;34.854;-92.408;2022-12-19T11:41:32;101737.72;;;21.63;22.29
37710;BME280;60223;34.854;-92.408;2022-12-19T11:44:00;101740.07;;;21.90;22.06
37710;BME280;60223;34.854;-92.408;2022-12-19T11:46:32;101742.93;;;21.92;22.05
37710;BME280;60223;34.854;-92.408;2022-12-19T11:48:50;101738.53;;;21.99;21.98
37710;BME280;60223;34.854;-92.408;2022-12-19T11:51:21;101740.70;;;22.16;21.84
37710;BME280;60223;34.854;-92.408;2022-12-19T11:53:46;101736.51;;;22.23;21.76
37710;BME280;60223;34.854;-92.408;2022-12-19T11:56:09;101766.54;;;21.99;21.88
37710;BME280;60223;34.854;-92.408;2022-12-19T11:58:31;101794.54;;;21.83;21.85
37710;BME280;60223;34.854;-92.408;2022-12-19T12:01:00;101783.69;;;22.06;21.82
37710;BME280;60223;34.854;-92.408;2022-12-19T12:05:48;101756.38;;;21.56;21.97
37710;BME280;60223;34.854;-92.408;2022-12-19T12:08:33;101772.65;;;21.23;22.22
37710;BME280;60223;34.854;-92.408;2022-12-19T12:10:44;101781.21;;;21.42;22.24
37710;BME280;60223;34.854;-92.408;2022-12-19T12:13:11;101772.23;;;21.23;22.36
37710;BME280;60223;34.854;-92.408;2022-12-19T12:15:39;101780.66;;;21.02;22.52
37710;BME280;60223;34.854;-92.408;2022-12-19T12:18:02;101797.13;;;18.77;24.29
37710;BME280;60223;34.854;-92.408;2022-12-19T12:20:27;101788.41;;;21.37;22.44
37710;BME280;60223;34.854;-92.408;2022-12-19T12:22:59;101781.85;;;21.78;22.12
37710;BME280;60223;34.854;-92.408;2022-12-19T12:25:24;101783.62;;;21.57;22.35
37710;BME280;60223;34.854;-92.408;2022-12-19T12:27:47;101788.47;;;21.58;22.22
37710;BME280;60223;34.854;-92.408;2022-12-19T12:30:08;101793.55;;;21.55;22.27
37710;BME280;60223;34.854;-92.408;2022-12-19T12:32:42;101796.92;;;21.61;21.98
37710;BME280;60223;34.854;-92.408;2022-12-19T12:35:04;101803.43;;;21.91;21.94